sensor_id;sensor_type;location;lat;lon;timestamp;P1;durP1;ratioP1;P2;durP2;ratioP2
57191;SDS011;43052;52.588;13.396;2023-01-23T00:00:30;27.10;;;20.60;;
57191;SDS011;43052;52.588;13.396;2023-01-23T00:02:55;26.13;;;20.35;;
57191;SDS011;43052;52.588;13.396;2023-01-23T00:05:21;25.40;;;19.40;;
57191;SDS011;43052;52.588;13.396;2023-01-23T00:07:47;26.10;;;20.67;;
57191;SDS011;43052;52.588;13.396;2023-01-23T00:10:12;26.90;;;19.50;;
57191;SDS011;43052;52.588;13.396;2023-01-23T00:12:41;26.60;;;19.15;;
57191;SDS011;43052;52.588;13.396;2023-01-23T00:15:07;26.20;;;19.85;;
57191;SDS011;43052;52.588;13.396;2023-01-23T00:17:33;26.35;;;19.67;;
57191;SDS011;43052;52.588;13.396;2023-01-23T00:19:58;25.30;;;17.63;;
57191;SDS011;43052;52.588;13.396;2023-01-23T00:22:24;29.27;;;20.17;;
57191;SDS011;43052;52.588;13.396;2023-01-23T00:24:50;27.13;;;20.63;;
57191;SDS011;43052;52.588;13.396;2023-01-23T00:27:15;28.58;;;20.85;;
57191;SDS011;43052;52.588;13.396;2023-01-23T00:29:40;27.20;;;19.75;;
57191;SDS011;43052;52.588;13.396;2023-01-23T00:32:05;28.35;;;20.35;;
57191;SDS011;43052;52.588;13.396;2023-01-23T00:34:31;28.15;;;21.00;;
57191;SDS011;43052;52.588;13.396;2023-01-23T00:36:56;27.65;;;20.00;;
57191;SDS011;43052;52.588;13.396;2023-01-23T00:39:21;27.48;;;20.25;;
57191;SDS011;43052;52.588;13.396;2023-01-23T00:41:47;28.25;;;19.58;;
57191;SDS011;43052;52.588;13.396;2023-01-23T00:44:13;27.25;;;19.88;;
57191;SDS011;43052;52.588;13.396;2023-01-23T00:46:40;26.80;;;20.45;;
57191;SDS011;43052;52.588;13.396;2023-01-23T00:49:05;28.75;;;21.40;;
57191;SDS011;43052;52.588;13.396;2023-01-23T00:51:31;29.08;;;20.80;;
57191;SDS011;43052;52.588;13.396;2023-01-23T00:53:56;29.40;;;20.13;;
57191;SDS011;43052;52.588;13.396;2023-01-23T00:56:22;29.65;;;20.50;;
57191;SDS011;43052;52.588;13.396;2023-01-23T00:58:47;28.88;;;21.50;;
57191;SDS011;43052;52.588;13.396;2023-01-23T01:01:13;27.10;;;20.48;;
57191;SDS011;43052;52.588;13.396;2023-01-23T01:03:39;28.85;;;20.75;;
57191;SDS011;43052;52.588;13.396;2023-01-23T01:06:05;26.58;;;19.60;;
57191;SDS011;43052;52.588;13.396;2023-01-23T01:08:30;27.30;;;20.13;;
57191;SDS011;43052;52.588;13.396;2023-01-23T01:10:56;27.25;;;20.42;;
57191;SDS011;43052;52.588;13.396;2023-01-23T01:13:21;30.27;;;21.50;;
57191;SDS011;43052;52.588;13.396;2023-01-23T01:15:48;30.63;;;21.10;;
57191;SDS011;43052;52.588;13.396;2023-01-23T01:18:14;30.52;;;21.90;;
57191;SDS011;43052;52.588;13.396;2023-01-23T01:20:40;31.08;;;21.75;;
57191;SDS011;43052;52.588;13.396;2023-01-23T01:23:06;29.52;;;21.52;;
57191;SDS011;43052;52.588;13.396;2023-01-23T01:25:31;29.70;;;20.77;;
57191;SDS011;43052;52.588;13.396;2023-01-23T01:27:57;31.58;;;21.85;;
57191;SDS011;43052;52.588;13.396;2023-01-23T01:30:22;30.02;;;21.13;;
57191;SDS011;43052;52.588;13.396;2023-01-23T01:32:50;32.40;;;21.55;;
57191;SDS011;43052;52.588;13.396;2023-01-23T01:35:16;29.63;;;21.58;;
57191;SDS011;43052;52.588;13.396;2023-01-23T01:37:41;29.85;;;21.67;;
57191;SDS011;43052;52.588;13.396;2023-01-23T01:40:08;29.48;;;20.80;;
57191;SDS011;43052;52.588;13.396;2023-01-23T01:42:38;29.92;;;21.35;;
57191;SDS011;43052;52.588;13.396;2023-01-23T01:45:04;31.80;;;22.08;;
57191;SDS011;43052;52.588;13.396;2023-01-23T01:47:30;32.80;;;22.38;;
57191;SDS011;43052;52.588;13.396;2023-01-23T01:49:56;31.85;;;21.92;;
57191;SDS011;43052;52.588;13.396;2023-01-23T01:52:25;29.85;;;21.25;;
57191;SDS011;43052;52.588;13.396;2023-01-23T01:54:52;30.38;;;21.42;;
57191;SDS011;43052;52.588;13.396;2023-01-23T01:57:26;32.25;;;22.80;;
57191;SDS011;43052;52.588;13.396;2023-01-23T02:00:03;32.90;;;22.25;;
57191;SDS011;43052;52.588;13.396;2023-01-23T02:02:35;33.53;;;23.23;;
57191;SDS011;43052;52.588;13.396;2023-01-23T02:05:10;32.08;;;22.25;;
57191;SDS011;43052;52.588;13.396;2023-01-23T02:08:07;32.33;;;22.95;;
57191;SDS011;43052;52.588;13.396;2023-01-23T02:10:38;32.78;;;21.98;;
57191;SDS011;43052;52.588;13.396;2023-01-23T02:15:54;31.15;;;22.15;;
57191;SDS011;43052;52.588;13.396;2023-01-23T02:18:20;32.42;;;22.50;;
57191;SDS011;43052;52.588;13.396;2023-01-23T02:20:46;32.30;;;22.25;;
57191;SDS011;43052;52.588;13.396;2023-01-23T02:23:20;32.42;;;22.58;;
57191;SDS011;43052;52.588;13.396;2023-01-23T02:25:59;31.77;;;22.10;;
57191;SDS011;43052;52.588;13.396;2023-01-23T02:28:36;35.20;;;23.05;;
57191;SDS011;43052;52.588;13.396;2023-01-23T02:31:04;33.20;;;23.50;;
57191;SDS011;43052;52.588;13.396;2023-01-23T02:35:55;34.15;;;22.98;;
57191;SDS011;43052;52.588;13.396;2023-01-23T02:38:26;33.13;;;22.65;;
57191;SDS011;43052;52.588;13.396;2023-01-23T02:40:54;33.03;;;23.27;;
57191;SDS011;43052;52.588;13.396;2023-01-23T02:43:23;30.80;;;22.48;;
57191;SDS011;43052;52.588;13.396;2023-01-23T02:45:54;31.98;;;21.88;;
57191;SDS011;43052;52.588;13.396;2023-01-23T02:48:20;34.25;;;23.05;;
57191;SDS011;43052;52.588;13.396;2023-01-23T02:50:48;32.83;;;22.80;;
57191;SDS011;43052;52.588;13.396;2023-01-23T02:53:14;30.73;;;21.63;;
57191;SDS011;43052;52.588;13.396;2023-01-23T02:55:39;32.40;;;22.27;;
57191;SDS011;43052;52.588;13.396;2023-01-23T02:58:08;32.72;;;21.77;;
57191;SDS011;43052;52.588;13.396;2023-01-23T03:00:52;33.75;;;22.98;;
57191;SDS011;43052;52.588;13.396;2023-01-23T03:03:18;31.73;;;22.33;;
57191;SDS011;43052;52.588;13.396;2023-01-23T03:05:43;32.90;;;22.83;;
57191;SDS011;43052;52.588;13.396;2023-01-23T03:08:10;31.98;;;21.30;;
57191;SDS011;43052;52.588;13.396;2023-01-23T03:10:35;31.92;;;21.77;;
57191;SDS011;43052;52.588;13.396;2023-01-23T03:13:01;31.38;;;22.75;;
57191;SDS011;43052;52.588;13.396;2023-01-23T03:15:28;32.70;;;21.75;;
57191;SDS011;43052;52.588;13.396;2023-01-23T03:17:54;31.75;;;22.45;;
57191;SDS011;43052;52.588;13.396;2023-01-23T03:20:20;31.48;;;22.58;;
57191;SDS011;43052;52.588;13.396;2023-01-23T03:22:48;34.67;;;23.27;;
57191;SDS011;43052;52.588;13.396;2023-01-23T03:25:14;32.83;;;22.85;;
57191;SDS011;43052;52.588;13.396;2023-01-23T03:27:41;33.15;;;22.33;;
57191;SDS011;43052;52.588;13.396;2023-01-23T03:30:06;30.33;;;23.08;;
57191;SDS011;43052;52.588;13.396;2023-01-23T03:32:39;31.98;;;22.15;;
57191;SDS011;43052;52.588;13.396;2023-01-23T03:35:06;32.15;;;19.77;;
57191;SDS011;43052;52.588;13.396;2023-01-23T03:37:34;34.20;;;23.20;;
57191;SDS011;43052;52.588;13.396;2023-01-23T03:39:59;32.90;;;22.10;;
57191;SDS011;43052;52.588;13.396;2023-01-23T03:42:43;33.28;;;23.20;;
57191;SDS011;43052;52.588;13.396;2023-01-23T03:45:08;33.00;;;23.45;;
57191;SDS011;43052;52.588;13.396;2023-01-23T03:47:34;33.78;;;23.70;;
57191;SDS011;43052;52.588;13.396;2023-01-23T03:49:59;33.35;;;23.40;;
57191;SDS011;43052;52.588;13.396;2023-01-23T03:52:25;33.60;;;23.60;;
57191;SDS011;43052;52.588;13.396;2023-01-23T03:54:50;33.80;;;22.75;;
57191;SDS011;43052;52.588;13.396;2023-01-23T03:57:17;31.60;;;21.23;;
57191;SDS011;43052;52.588;13.396;2023-01-23T03:59:42;33.67;;;23.23;;
57191;SDS011;43052;52.588;13.396;2023-01-23T04:02:07;37.42;;;24.92;;
57191;SDS011;43052;52.588;13.396;2023-01-23T04:04:33;31.90;;;22.48;;
57191;SDS011;43052;52.588;13.396;2023-01-23T04:06:59;31.55;;;22.92;;
57191;SDS011;43052;52.588;13.396;2023-01-23T04:09:26;34.65;;;23.95;;
57191;SDS011;43052;52.588;13.396;2023-01-23T04:11:55;31.85;;;23.98;;
57191;SDS011;43052;52.588;13.396;2023-01-23T04:14:22;35.00;;;23.67;;
57191;SDS011;43052;52.588;13.396;2023-01-23T04:16:48;34.58;;;24.00;;
57191;SDS011;43052;52.588;13.396;2023-01-23T04:19:14;36.72;;;24.30;;
57191;SDS011;43052;52.588;13.396;2023-01-23T04:21:43;35.03;;;24.60;;
57191;SDS011;43052;52.588;13.396;2023-01-23T04:24:08;33.25;;;24.40;;
57191;SDS011;43052;52.588;13.396;2023-01-23T04:26:33;34.30;;;23.33;;
57191;SDS011;43052;52.588;13.396;2023-01-23T04:28:59;33.28;;;24.63;;
57191;SDS011;43052;52.588;13.396;2023-01-23T04:31:25;32.75;;;23.92;;
57191;SDS011;43052;52.588;13.396;2023-01-23T04:33:50;35.33;;;25.23;;
57191;SDS011;43052;52.588;13.396;2023-01-23T04:36:15;36.65;;;25.50;;
57191;SDS011;43052;52.588;13.396;2023-01-23T04:38:41;35.05;;;24.50;;
57191;SDS011;43052;52.588;13.396;2023-01-23T04:41:06;35.67;;;24.60;;
57191;SDS011;43052;52.588;13.396;2023-01-23T04:43:31;34.03;;;23.85;;
57191;SDS011;43052;52.588;13.396;2023-01-23T04:45:56;36.10;;;24.70;;
57191;SDS011;43052;52.588;13.396;2023-01-23T04:48:22;33.42;;;24.08;;
57191;SDS011;43052;52.588;13.396;2023-01-23T04:50:48;35.47;;;25.10;;
57191;SDS011;43052;52.588;13.396;2023-01-23T04:53:13;34.13;;;24.02;;
57191;SDS011;43052;52.588;13.396;2023-01-23T04:55:39;36.65;;;23.40;;
57191;SDS011;43052;52.588;13.396;2023-01-23T04:58:04;34.83;;;24.80;;
57191;SDS011;43052;52.588;13.396;2023-01-23T05:00:29;33.47;;;24.00;;
57191;SDS011;43052;52.588;13.396;2023-01-23T05:02:54;34.58;;;23.00;;
57191;SDS011;43052;52.588;13.396;2023-01-23T05:05:20;36.28;;;23.38;;
57191;SDS011;43052;52.588;13.396;2023-01-23T05:07:46;33.92;;;24.10;;
57191;SDS011;43052;52.588;13.396;2023-01-23T05:10:13;33.90;;;24.23;;
57191;SDS011;43052;52.588;13.396;2023-01-23T05:12:40;36.70;;;25.40;;
57191;SDS011;43052;52.588;13.396;2023-01-23T05:15:05;33.05;;;23.88;;
57191;SDS011;43052;52.588;13.396;2023-01-23T05:17:31;35.40;;;23.88;;
57191;SDS011;43052;52.588;13.396;2023-01-23T05:19:56;33.97;;;24.38;;
57191;SDS011;43052;52.588;13.396;2023-01-23T05:22:22;33.80;;;24.25;;
57191;SDS011;43052;52.588;13.396;2023-01-23T05:24:47;33.63;;;23.38;;
57191;SDS011;43052;52.588;13.396;2023-01-23T05:27:13;34.33;;;24.00;;
57191;SDS011;43052;52.588;13.396;2023-01-23T05:29:38;32.72;;;23.38;;
57191;SDS011;43052;52.588;13.396;2023-01-23T05:32:03;33.53;;;24.38;;
57191;SDS011;43052;52.588;13.396;2023-01-23T05:34:29;35.58;;;25.92;;
57191;SDS011;43052;52.588;13.396;2023-01-23T05:36:54;34.85;;;23.90;;
57191;SDS011;43052;52.588;13.396;2023-01-23T05:39:20;34.83;;;24.85;;
57191;SDS011;43052;52.588;13.396;2023-01-23T05:41:46;35.00;;;24.83;;
57191;SDS011;43052;52.588;13.396;2023-01-23T05:44:11;36.28;;;25.25;;
57191;SDS011;43052;52.588;13.396;2023-01-23T05:46:36;33.92;;;24.38;;
57191;SDS011;43052;52.588;13.396;2023-01-23T05:49:01;35.28;;;24.88;;
57191;SDS011;43052;52.588;13.396;2023-01-23T05:51:27;35.15;;;25.38;;
57191;SDS011;43052;52.588;13.396;2023-01-23T05:53:56;32.63;;;23.45;;
57191;SDS011;43052;52.588;13.396;2023-01-23T05:56:25;34.83;;;24.40;;
57191;SDS011;43052;52.588;13.396;2023-01-23T05:58:50;34.30;;;23.98;;
57191;SDS011;43052;52.588;13.396;2023-01-23T06:01:16;32.70;;;24.05;;
57191;SDS011;43052;52.588;13.396;2023-01-23T06:03:41;32.17;;;24.00;;
57191;SDS011;43052;52.588;13.396;2023-01-23T06:06:07;33.08;;;23.48;;
57191;SDS011;43052;52.588;13.396;2023-01-23T06:08:32;33.42;;;23.98;;
57191;SDS011;43052;52.588;13.396;2023-01-23T06:10:58;35.15;;;24.05;;
57191;SDS011;43052;52.588;13.396;2023-01-23T06:13:24;36.75;;;24.77;;
57191;SDS011;43052;52.588;13.396;2023-01-23T06:15:50;35.30;;;24.70;;
57191;SDS011;43052;52.588;13.396;2023-01-23T06:18:21;34.28;;;24.15;;
57191;SDS011;43052;52.588;13.396;2023-01-23T06:20:47;33.67;;;24.42;;
57191;SDS011;43052;52.588;13.396;2023-01-23T06:23:12;33.15;;;23.70;;
57191;SDS011;43052;52.588;13.396;2023-01-23T06:25:37;37.40;;;25.35;;
57191;SDS011;43052;52.588;13.396;2023-01-23T06:28:03;35.00;;;24.13;;
57191;SDS011;43052;52.588;13.396;2023-01-23T06:30:28;33.60;;;23.85;;
57191;SDS011;43052;52.588;13.396;2023-01-23T06:32:54;34.05;;;24.17;;
57191;SDS011;43052;52.588;13.396;2023-01-23T06:35:19;38.05;;;26.13;;
57191;SDS011;43052;52.588;13.396;2023-01-23T06:37:45;36.70;;;24.92;;
57191;SDS011;43052;52.588;13.396;2023-01-23T06:40:10;34.95;;;26.10;;
57191;SDS011;43052;52.588;13.396;2023-01-23T06:42:37;34.88;;;24.48;;
57191;SDS011;43052;52.588;13.396;2023-01-23T06:45:03;36.55;;;24.58;;
57191;SDS011;43052;52.588;13.396;2023-01-23T06:47:28;32.35;;;23.75;;
57191;SDS011;43052;52.588;13.396;2023-01-23T06:49:53;36.00;;;25.02;;
57191;SDS011;43052;52.588;13.396;2023-01-23T06:52:19;37.97;;;25.30;;
57191;SDS011;43052;52.588;13.396;2023-01-23T06:54:44;32.95;;;24.30;;
57191;SDS011;43052;52.588;13.396;2023-01-23T06:57:09;31.10;;;22.75;;
57191;SDS011;43052;52.588;13.396;2023-01-23T06:59:35;30.65;;;22.75;;
57191;SDS011;43052;52.588;13.396;2023-01-23T07:02:00;32.72;;;23.35;;
57191;SDS011;43052;52.588;13.396;2023-01-23T07:04:25;33.70;;;24.60;;
57191;SDS011;43052;52.588;13.396;2023-01-23T07:06:51;31.15;;;22.45;;
57191;SDS011;43052;52.588;13.396;2023-01-23T07:09:16;34.40;;;24.88;;
57191;SDS011;43052;52.588;13.396;2023-01-23T07:11:41;34.80;;;24.10;;
57191;SDS011;43052;52.588;13.396;2023-01-23T07:14:06;32.75;;;23.20;;
57191;SDS011;43052;52.588;13.396;2023-01-23T07:16:32;32.58;;;23.65;;
57191;SDS011;43052;52.588;13.396;2023-01-23T07:18:59;32.38;;;22.63;;
57191;SDS011;43052;52.588;13.396;2023-01-23T07:21:25;33.50;;;23.25;;
57191;SDS011;43052;52.588;13.396;2023-01-23T07:23:50;32.33;;;21.42;;
57191;SDS011;43052;52.588;13.396;2023-01-23T07:26:15;31.75;;;22.52;;
57191;SDS011;43052;52.588;13.396;2023-01-23T07:28:41;31.15;;;23.08;;
57191;SDS011;43052;52.588;13.396;2023-01-23T07:31:06;32.28;;;23.83;;
57191;SDS011;43052;52.588;13.396;2023-01-23T07:33:31;32.67;;;23.23;;
57191;SDS011;43052;52.588;13.396;2023-01-23T07:35:57;33.10;;;23.35;;
57191;SDS011;43052;52.588;13.396;2023-01-23T07:38:23;32.08;;;23.55;;
57191;SDS011;43052;52.588;13.396;2023-01-23T07:40:49;35.35;;;23.48;;
57191;SDS011;43052;52.588;13.396;2023-01-23T07:43:15;33.17;;;24.13;;
57191;SDS011;43052;52.588;13.396;2023-01-23T07:45:40;34.17;;;23.25;;
57191;SDS011;43052;52.588;13.396;2023-01-23T07:48:05;34.55;;;25.00;;
57191;SDS011;43052;52.588;13.396;2023-01-23T07:50:30;36.38;;;22.77;;
57191;SDS011;43052;52.588;13.396;2023-01-23T07:52:56;32.80;;;24.42;;
57191;SDS011;43052;52.588;13.396;2023-01-23T07:55:21;31.38;;;23.33;;
57191;SDS011;43052;52.588;13.396;2023-01-23T07:57:46;34.13;;;23.23;;
57191;SDS011;43052;52.588;13.396;2023-01-23T08:00:11;35.03;;;24.00;;
57191;SDS011;43052;52.588;13.396;2023-01-23T08:02:37;35.22;;;23.65;;
57191;SDS011;43052;52.588;13.396;2023-01-23T08:05:02;34.95;;;23.58;;
57191;SDS011;43052;52.588;13.396;2023-01-23T08:07:28;34.03;;;23.98;;
57191;SDS011;43052;52.588;13.396;2023-01-23T08:09:53;31.45;;;22.75;;
57191;SDS011;43052;52.588;13.396;2023-01-23T08:12:18;34.05;;;24.10;;
57191;SDS011;43052;52.588;13.396;2023-01-23T08:14:43;33.33;;;23.65;;
57191;SDS011;43052;52.588;13.396;2023-01-23T08:17:09;36.55;;;24.83;;
57191;SDS011;43052;52.588;13.396;2023-01-23T08:19:34;30.80;;;23.08;;
57191;SDS011;43052;52.588;13.396;2023-01-23T08:21:59;32.00;;;23.30;;
57191;SDS011;43052;52.588;13.396;2023-01-23T08:24:24;33.13;;;23.75;;
57191;SDS011;43052;52.588;13.396;2023-01-23T08:26:50;31.83;;;23.70;;
57191;SDS011;43052;52.588;13.396;2023-01-23T08:29:15;32.92;;;23.30;;
57191;SDS011;43052;52.588;13.396;2023-01-23T08:31:40;32.17;;;23.63;;
57191;SDS011;43052;52.588;13.396;2023-01-23T08:34:05;31.92;;;23.33;;
57191;SDS011;43052;52.588;13.396;2023-01-23T08:36:31;33.15;;;23.35;;
57191;SDS011;43052;52.588;13.396;2023-01-23T08:38:56;32.35;;;22.35;;
57191;SDS011;43052;52.588;13.396;2023-01-23T08:41:22;34.28;;;24.33;;
57191;SDS011;43052;52.588;13.396;2023-01-23T08:43:47;33.90;;;22.42;;
57191;SDS011;43052;52.588;13.396;2023-01-23T08:46:13;30.27;;;22.10;;
57191;SDS011;43052;52.588;13.396;2023-01-23T08:48:39;34.65;;;23.80;;
57191;SDS011;43052;52.588;13.396;2023-01-23T08:51:05;34.88;;;24.65;;
57191;SDS011;43052;52.588;13.396;2023-01-23T08:53:32;32.90;;;23.17;;
57191;SDS011;43052;52.588;13.396;2023-01-23T08:55:59;32.25;;;23.00;;
57191;SDS011;43052;52.588;13.396;2023-01-23T08:58:31;31.35;;;23.15;;
57191;SDS011;43052;52.588;13.396;2023-01-23T09:00:57;35.38;;;24.42;;
57191;SDS011;43052;52.588;13.396;2023-01-23T09:03:23;31.42;;;22.17;;
57191;SDS011;43052;52.588;13.396;2023-01-23T09:05:49;32.95;;;24.35;;
57191;SDS011;43052;52.588;13.396;2023-01-23T09:08:14;33.45;;;24.85;;
57191;SDS011;43052;52.588;13.396;2023-01-23T09:10:40;33.20;;;24.05;;
57191;SDS011;43052;52.588;13.396;2023-01-23T09:13:05;32.50;;;23.23;;
57191;SDS011;43052;52.588;13.396;2023-01-23T09:15:30;31.05;;;23.00;;
57191;SDS011;43052;52.588;13.396;2023-01-23T09:17:56;29.60;;;23.17;;
57191;SDS011;43052;52.588;13.396;2023-01-23T09:20:21;30.63;;;22.63;;
57191;SDS011;43052;52.588;13.396;2023-01-23T09:22:50;30.23;;;22.98;;
57191;SDS011;43052;52.588;13.396;2023-01-23T09:25:15;32.17;;;22.45;;
57191;SDS011;43052;52.588;13.396;2023-01-23T09:27:40;31.27;;;23.23;;
57191;SDS011;43052;52.588;13.396;2023-01-23T09:30:05;30.80;;;22.35;;
57191;SDS011;43052;52.588;13.396;2023-01-23T09:32:31;30.73;;;22.60;;
57191;SDS011;43052;52.588;13.396;2023-01-23T09:34:57;31.20;;;22.60;;
57191;SDS011;43052;52.588;13.396;2023-01-23T09:37:22;29.65;;;22.17;;
57191;SDS011;43052;52.588;13.396;2023-01-23T09:39:47;31.85;;;23.05;;
57191;SDS011;43052;52.588;13.396;2023-01-23T09:42:24;32.75;;;23.35;;
57191;SDS011;43052;52.588;13.396;2023-01-23T09:44:59;31.83;;;22.20;;
57191;SDS011;43052;52.588;13.396;2023-01-23T09:47:31;33.65;;;23.08;;
57191;SDS011;43052;52.588;13.396;2023-01-23T09:50:02;32.17;;;22.67;;
57191;SDS011;43052;52.588;13.396;2023-01-23T09:52:36;32.03;;;23.25;;
57191;SDS011;43052;52.588;13.396;2023-01-23T09:55:16;30.83;;;22.80;;
57191;SDS011;43052;52.588;13.396;2023-01-23T09:57:53;33.10;;;23.90;;
57191;SDS011;43052;52.588;13.396;2023-01-23T10:00:27;32.42;;;23.42;;
57191;SDS011;43052;52.588;13.396;2023-01-23T10:02:57;32.72;;;23.65;;
57191;SDS011;43052;52.588;13.396;2023-01-23T10:05:29;35.90;;;23.15;;
57191;SDS011;43052;52.588;13.396;2023-01-23T10:08:05;30.70;;;22.27;;
57191;SDS011;43052;52.588;13.396;2023-01-23T10:10:45;30.05;;;22.27;;
57191;SDS011;43052;52.588;13.396;2023-01-23T10:13:53;33.85;;;24.75;;
57191;SDS011;43052;52.588;13.396;2023-01-23T10:16:37;32.17;;;24.13;;
57191;SDS011;43052;52.588;13.396;2023-01-23T10:19:33;30.08;;;23.02;;
57191;SDS011;43052;52.588;13.396;2023-01-23T10:24:56;30.45;;;23.15;;
57191;SDS011;43052;52.588;13.396;2023-01-23T10:29:55;30.65;;;21.27;;
57191;SDS011;43052;52.588;13.396;2023-01-23T10:32:24;30.52;;;21.98;;
57191;SDS011;43052;52.588;13.396;2023-01-23T10:34:59;30.92;;;22.33;;
57191;SDS011;43052;52.588;13.396;2023-01-23T10:37:38;28.55;;;21.52;;
57191;SDS011;43052;52.588;13.396;2023-01-23T10:40:10;28.85;;;22.75;;
57191;SDS011;43052;52.588;13.396;2023-01-23T10:43:02;29.15;;;22.40;;
57191;SDS011;43052;52.588;13.396;2023-01-23T10:45:28;30.30;;;22.50;;
57191;SDS011;43052;52.588;13.396;2023-01-23T10:47:54;30.45;;;22.58;;
57191;SDS011;43052;52.588;13.396;2023-01-23T10:50:32;30.77;;;22.50;;
57191;SDS011;43052;52.588;13.396;2023-01-23T10:53:06;31.52;;;24.10;;
57191;SDS011;43052;52.588;13.396;2023-01-23T10:55:43;28.40;;;22.08;;
57191;SDS011;43052;52.588;13.396;2023-01-23T10:58:09;31.17;;;23.45;;
57191;SDS011;43052;52.588;13.396;2023-01-23T11:00:51;28.60;;;22.55;;
57191;SDS011;43052;52.588;13.396;2023-01-23T11:05:50;28.65;;;22.30;;
57191;SDS011;43052;52.588;13.396;2023-01-23T11:08:26;28.10;;;21.42;;
57191;SDS011;43052;52.588;13.396;2023-01-23T11:11:10;31.00;;;22.95;;
57191;SDS011;43052;52.588;13.396;2023-01-23T11:13:44;26.30;;;21.20;;
57191;SDS011;43052;52.588;13.396;2023-01-23T11:16:14;28.13;;;22.15;;
57191;SDS011;43052;52.588;13.396;2023-01-23T11:18:43;28.27;;;22.35;;
57191;SDS011;43052;52.588;13.396;2023-01-23T11:21:19;29.15;;;23.02;;
57191;SDS011;43052;52.588;13.396;2023-01-23T11:23:46;30.05;;;21.75;;
57191;SDS011;43052;52.588;13.396;2023-01-23T11:26:29;28.65;;;22.65;;
57191;SDS011;43052;52.588;13.396;2023-01-23T11:31:21;27.33;;;21.23;;
57191;SDS011;43052;52.588;13.396;2023-01-23T11:33:56;28.45;;;21.70;;
57191;SDS011;43052;52.588;13.396;2023-01-23T11:36:34;28.92;;;21.17;;
57191;SDS011;43052;52.588;13.396;2023-01-23T11:39:10;30.67;;;22.08;;
57191;SDS011;43052;52.588;13.396;2023-01-23T11:41:53;28.92;;;21.88;;
57191;SDS011;43052;52.588;13.396;2023-01-23T11:44:19;28.83;;;21.00;;
57191;SDS011;43052;52.588;13.396;2023-01-23T11:49:31;28.27;;;21.05;;
57191;SDS011;43052;52.588;13.396;2023-01-23T11:58:20;28.52;;;21.58;;
57191;SDS011;43052;52.588;13.396;2023-01-23T12:01:00;29.13;;;21.90;;
57191;SDS011;43052;52.588;13.396;2023-01-23T12:03:42;27.77;;;21.60;;
57191;SDS011;43052;52.588;13.396;2023-01-23T12:06:50;28.13;;;20.63;;
57191;SDS011;43052;52.588;13.396;2023-01-23T12:09:20;26.85;;;20.10;;
57191;SDS011;43052;52.588;13.396;2023-01-23T12:12:00;24.20;;;20.05;;
57191;SDS011;43052;52.588;13.396;2023-01-23T12:14:29;26.55;;;19.13;;
57191;SDS011;43052;52.588;13.396;2023-01-23T12:17:32;25.02;;;19.77;;
57191;SDS011;43052;52.588;13.396;2023-01-23T12:20:21;26.88;;;19.88;;
57191;SDS011;43052;52.588;13.396;2023-01-23T12:22:54;25.23;;;19.52;;
57191;SDS011;43052;52.588;13.396;2023-01-23T12:25:37;23.17;;;19.08;;
57191;SDS011;43052;52.588;13.396;2023-01-23T12:28:09;24.20;;;18.73;;
57191;SDS011;43052;52.588;13.396;2023-01-23T12:33:57;25.77;;;18.35;;
57191;SDS011;43052;52.588;13.396;2023-01-23T12:37:07;22.10;;;17.25;;
57191;SDS011;43052;52.588;13.396;2023-01-23T12:42:54;25.48;;;18.48;;
57191;SDS011;43052;52.588;13.396;2023-01-23T12:45:30;23.65;;;17.38;;
57191;SDS011;43052;52.588;13.396;2023-01-23T12:48:16;24.08;;;17.92;;
57191;SDS011;43052;52.588;13.396;2023-01-23T12:51:06;22.08;;;17.27;;
57191;SDS011;43052;52.588;13.396;2023-01-23T12:53:36;21.88;;;17.23;;
57191;SDS011;43052;52.588;13.396;2023-01-23T12:56:16;22.45;;;17.10;;
57191;SDS011;43052;52.588;13.396;2023-01-23T12:59:21;23.67;;;17.77;;
57191;SDS011;43052;52.588;13.396;2023-01-23T13:02:18;24.08;;;17.45;;
57191;SDS011;43052;52.588;13.396;2023-01-23T13:04:59;22.90;;;17.67;;
57191;SDS011;43052;52.588;13.396;2023-01-23T13:07:43;24.27;;;17.30;;
57191;SDS011;43052;52.588;13.396;2023-01-23T13:10:23;21.92;;;17.35;;
57191;SDS011;43052;52.588;13.396;2023-01-23T13:13:16;21.60;;;16.95;;
57191;SDS011;43052;52.588;13.396;2023-01-23T13:15:43;21.77;;;16.58;;
57191;SDS011;43052;52.588;13.396;2023-01-23T13:18:24;22.60;;;17.30;;
57191;SDS011;43052;52.588;13.396;2023-01-23T13:20:58;22.10;;;17.63;;
57191;SDS011;43052;52.588;13.396;2023-01-23T13:23:42;21.27;;;15.98;;
57191;SDS011;43052;52.588;13.396;2023-01-23T13:26:10;25.15;;;17.45;;
57191;SDS011;43052;52.588;13.396;2023-01-23T13:28:57;20.50;;;16.20;;
57191;SDS011;43052;52.588;13.396;2023-01-23T13:31:35;23.23;;;16.80;;
57191;SDS011;43052;52.588;13.396;2023-01-23T13:34:03;21.38;;;16.05;;
57191;SDS011;43052;52.588;13.396;2023-01-23T13:36:49;20.58;;;15.98;;
57191;SDS011;43052;52.588;13.396;2023-01-23T13:41:41;21.27;;;16.47;;
57191;SDS011;43052;52.588;13.396;2023-01-23T13:49:37;21.40;;;16.55;;
57191;SDS011;43052;52.588;13.396;2023-01-23T13:52:58;21.20;;;15.75;;
57191;SDS011;43052;52.588;13.396;2023-01-23T13:55:40;20.98;;;15.80;;
57191;SDS011;43052;52.588;13.396;2023-01-23T13:58:27;20.67;;;16.08;;
57191;SDS011;43052;52.588;13.396;2023-01-23T14:00:58;22.73;;;16.70;;
57191;SDS011;43052;52.588;13.396;2023-01-23T14:03:49;21.17;;;16.95;;
57191;SDS011;43052;52.588;13.396;2023-01-23T14:06:36;24.17;;;17.90;;
57191;SDS011;43052;52.588;13.396;2023-01-23T14:09:03;21.40;;;16.15;;
57191;SDS011;43052;52.588;13.396;2023-01-23T14:11:43;21.23;;;17.40;;
57191;SDS011;43052;52.588;13.396;2023-01-23T14:14:09;22.08;;;16.80;;
57191;SDS011;43052;52.588;13.396;2023-01-23T14:16:53;22.95;;;17.58;;
57191;SDS011;43052;52.588;13.396;2023-01-23T14:19:28;22.55;;;16.77;;
57191;SDS011;43052;52.588;13.396;2023-01-23T14:21:54;22.67;;;17.88;;
57191;SDS011;43052;52.588;13.396;2023-01-23T14:24:23;22.13;;;17.13;;
57191;SDS011;43052;52.588;13.396;2023-01-23T14:26:58;22.73;;;17.48;;
57191;SDS011;43052;52.588;13.396;2023-01-23T14:29:25;21.50;;;17.17;;
57191;SDS011;43052;52.588;13.396;2023-01-23T14:31:51;22.55;;;16.98;;
57191;SDS011;43052;52.588;13.396;2023-01-23T14:34:18;22.70;;;17.15;;
57191;SDS011;43052;52.588;13.396;2023-01-23T14:36:46;23.55;;;16.60;;
57191;SDS011;43052;52.588;13.396;2023-01-23T14:39:22;22.60;;;16.77;;
57191;SDS011;43052;52.588;13.396;2023-01-23T14:41:52;24.33;;;16.92;;
57191;SDS011;43052;52.588;13.396;2023-01-23T14:44:20;19.95;;;15.63;;
57191;SDS011;43052;52.588;13.396;2023-01-23T14:46:50;21.77;;;16.25;;
57191;SDS011;43052;52.588;13.396;2023-01-23T14:49:28;20.63;;;16.10;;
57191;SDS011;43052;52.588;13.396;2023-01-23T14:52:04;21.55;;;15.40;;
57191;SDS011;43052;52.588;13.396;2023-01-23T14:54:31;20.42;;;15.98;;
57191;SDS011;43052;52.588;13.396;2023-01-23T14:56:57;22.35;;;17.73;;
57191;SDS011;43052;52.588;13.396;2023-01-23T14:59:26;21.08;;;17.00;;
57191;SDS011;43052;52.588;13.396;2023-01-23T15:02:01;20.67;;;16.95;;